sensor_id;sensor_type;location;lat;lon;timestamp;P1;durP1;ratioP1;P2;durP2;ratioP2
72261;SDS011;60173;52.112;8.648;2022-08-03T00:01:46;6.93;;;5.55;;
72261;SDS011;60173;52.112;8.648;2022-08-03T00:04:13;6.43;;;5.50;;
72261;SDS011;60173;52.112;8.648;2022-08-03T00:06:39;8.32;;;5.53;;
72261;SDS011;60173;52.112;8.648;2022-08-03T00:09:05;9.00;;;5.90;;
72261;SDS011;60173;52.112;8.648;2022-08-03T00:11:32;8.40;;;6.25;;
72261;SDS011;60173;52.112;8.648;2022-08-03T00:13:59;8.27;;;5.85;;
72261;SDS011;60173;52.112;8.648;2022-08-03T00:16:26;6.72;;;5.00;;
72261;SDS011;60173;52.112;8.648;2022-08-03T00:18:52;7.28;;;5.45;;
72261;SDS011;60173;52.112;8.648;2022-08-03T00:21:19;7.43;;;5.63;;
72261;SDS011;60173;52.112;8.648;2022-08-03T00:23:45;7.43;;;5.80;;
72261;SDS011;60173;52.112;8.648;2022-08-03T00:26:17;7.90;;;6.00;;
72261;SDS011;60173;52.112;8.648;2022-08-03T00:28:44;8.00;;;5.72;;
72261;SDS011;60173;52.112;8.648;2022-08-03T00:31:11;5.95;;;5.35;;
72261;SDS011;60173;52.112;8.648;2022-08-03T00:33:39;7.50;;;6.03;;
72261;SDS011;60173;52.112;8.648;2022-08-03T00:36:25;7.90;;;5.90;;
72261;SDS011;60173;52.112;8.648;2022-08-03T00:38:52;7.13;;;6.05;;
72261;SDS011;60173;52.112;8.648;2022-08-03T00:41:18;8.68;;;5.93;;
72261;SDS011;60173;52.112;8.648;2022-08-03T00:43:45;7.70;;;6.05;;
72261;SDS011;60173;52.112;8.648;2022-08-03T00:46:11;7.97;;;6.72;;
72261;SDS011;60173;52.112;8.648;2022-08-03T00:48:45;8.02;;;6.32;;
72261;SDS011;60173;52.112;8.648;2022-08-03T00:51:12;8.20;;;6.32;;
72261;SDS011;60173;52.112;8.648;2022-08-03T00:53:38;7.15;;;6.38;;
72261;SDS011;60173;52.112;8.648;2022-08-03T00:56:05;7.65;;;6.43;;
72261;SDS011;60173;52.112;8.648;2022-08-03T00:58:31;6.68;;;5.65;;
72261;SDS011;60173;52.112;8.648;2022-08-03T01:00:57;6.35;;;5.75;;
72261;SDS011;60173;52.112;8.648;2022-08-03T01:03:24;7.78;;;6.30;;
72261;SDS011;60173;52.112;8.648;2022-08-03T01:14:31;10.68;;;6.47;;
72261;SDS011;60173;52.112;8.648;2022-08-03T01:17:22;12.73;;;7.60;;
72261;SDS011;60173;52.112;8.648;2022-08-03T01:20:04;9.00;;;6.38;;
72261;SDS011;60173;52.112;8.648;2022-08-03T01:22:39;9.80;;;6.97;;
72261;SDS011;60173;52.112;8.648;2022-08-03T01:31:10;6.65;;;5.90;;
72261;SDS011;60173;52.112;8.648;2022-08-03T01:33:43;6.70;;;6.00;;
72261;SDS011;60173;52.112;8.648;2022-08-03T01:36:17;8.23;;;6.40;;
72261;SDS011;60173;52.112;8.648;2022-08-03T01:38:50;7.43;;;6.53;;
72261;SDS011;60173;52.112;8.648;2022-08-03T01:41:24;9.18;;;6.80;;
72261;SDS011;60173;52.112;8.648;2022-08-03T01:43:55;7.20;;;6.50;;
72261;SDS011;60173;52.112;8.648;2022-08-03T01:46:44;10.05;;;6.43;;
72261;SDS011;60173;52.112;8.648;2022-08-03T01:49:14;7.45;;;6.55;;
72261;SDS011;60173;52.112;8.648;2022-08-03T01:51:41;8.20;;;5.97;;
72261;SDS011;60173;52.112;8.648;2022-08-03T01:54:29;8.50;;;7.15;;
72261;SDS011;60173;52.112;8.648;2022-08-03T01:56:57;9.27;;;6.65;;
72261;SDS011;60173;52.112;8.648;2022-08-03T01:59:25;9.02;;;6.72;;
72261;SDS011;60173;52.112;8.648;2022-08-03T02:01:54;7.32;;;6.63;;
72261;SDS011;60173;52.112;8.648;2022-08-03T02:04:42;9.35;;;7.70;;
72261;SDS011;60173;52.112;8.648;2022-08-03T02:07:12;7.78;;;7.07;;
72261;SDS011;60173;52.112;8.648;2022-08-03T02:09:40;9.30;;;7.30;;
72261;SDS011;60173;52.112;8.648;2022-08-03T02:12:10;9.48;;;7.32;;
72261;SDS011;60173;52.112;8.648;2022-08-03T02:14:39;8.38;;;7.35;;
72261;SDS011;60173;52.112;8.648;2022-08-03T02:17:08;7.22;;;6.53;;
72261;SDS011;60173;52.112;8.648;2022-08-03T02:19:35;8.35;;;7.07;;
72261;SDS011;60173;52.112;8.648;2022-08-03T02:22:04;10.88;;;6.93;;
72261;SDS011;60173;52.112;8.648;2022-08-03T02:24:33;7.40;;;6.57;;
72261;SDS011;60173;52.112;8.648;2022-08-03T02:27:00;7.72;;;6.65;;
72261;SDS011;60173;52.112;8.648;2022-08-03T02:29:31;8.48;;;6.32;;
72261;SDS011;60173;52.112;8.648;2022-08-03T02:32:06;7.63;;;6.65;;
72261;SDS011;60173;52.112;8.648;2022-08-03T02:34:35;7.78;;;6.82;;
72261;SDS011;60173;52.112;8.648;2022-08-03T02:37:02;8.60;;;6.65;;
72261;SDS011;60173;52.112;8.648;2022-08-03T02:39:30;8.18;;;6.22;;
72261;SDS011;60173;52.112;8.648;2022-08-03T02:41:59;8.45;;;7.20;;
72261;SDS011;60173;52.112;8.648;2022-08-03T02:44:27;6.97;;;6.28;;
72261;SDS011;60173;52.112;8.648;2022-08-03T02:46:56;8.43;;;6.70;;
72261;SDS011;60173;52.112;8.648;2022-08-03T02:49:27;7.10;;;6.40;;
72261;SDS011;60173;52.112;8.648;2022-08-03T02:52:14;7.13;;;6.43;;
72261;SDS011;60173;52.112;8.648;2022-08-03T02:54:43;7.53;;;6.43;;
72261;SDS011;60173;52.112;8.648;2022-08-03T02:57:12;6.90;;;6.13;;
72261;SDS011;60173;52.112;8.648;2022-08-03T02:59:41;8.90;;;7.13;;
72261;SDS011;60173;52.112;8.648;2022-08-03T03:02:09;8.40;;;6.65;;
72261;SDS011;60173;52.112;8.648;2022-08-03T03:04:37;8.30;;;7.35;;
72261;SDS011;60173;52.112;8.648;2022-08-03T03:07:24;6.88;;;6.20;;
72261;SDS011;60173;52.112;8.648;2022-08-03T03:09:53;9.63;;;6.93;;
72261;SDS011;60173;52.112;8.648;2022-08-03T03:12:20;8.20;;;7.07;;
72261;SDS011;60173;52.112;8.648;2022-08-03T03:14:47;8.85;;;6.68;;
72261;SDS011;60173;52.112;8.648;2022-08-03T03:17:14;9.75;;;6.55;;
72261;SDS011;60173;52.112;8.648;2022-08-03T03:19:42;7.70;;;5.80;;
72261;SDS011;60173;52.112;8.648;2022-08-03T03:22:10;8.18;;;6.15;;
72261;SDS011;60173;52.112;8.648;2022-08-03T03:24:38;6.80;;;6.07;;
72261;SDS011;60173;52.112;8.648;2022-08-03T03:27:06;6.93;;;6.18;;
72261;SDS011;60173;52.112;8.648;2022-08-03T03:29:33;7.00;;;6.30;;
72261;SDS011;60173;52.112;8.648;2022-08-03T03:32:04;7.95;;;7.03;;
72261;SDS011;60173;52.112;8.648;2022-08-03T03:34:34;9.25;;;6.70;;
72261;SDS011;60173;52.112;8.648;2022-08-03T03:37:01;6.25;;;5.65;;
72261;SDS011;60173;52.112;8.648;2022-08-03T03:39:27;9.50;;;6.20;;
72261;SDS011;60173;52.112;8.648;2022-08-03T03:41:54;7.50;;;6.32;;
72261;SDS011;60173;52.112;8.648;2022-08-03T03:44:21;7.82;;;6.60;;
72261;SDS011;60173;52.112;8.648;2022-08-03T03:46:47;8.15;;;6.22;;
72261;SDS011;60173;52.112;8.648;2022-08-03T03:49:14;7.53;;;6.75;;
72261;SDS011;60173;52.112;8.648;2022-08-03T03:51:40;7.40;;;6.70;;
72261;SDS011;60173;52.112;8.648;2022-08-03T03:54:07;7.40;;;6.40;;
72261;SDS011;60173;52.112;8.648;2022-08-03T03:56:33;7.82;;;6.70;;
72261;SDS011;60173;52.112;8.648;2022-08-03T03:58:59;8.88;;;6.40;;
72261;SDS011;60173;52.112;8.648;2022-08-03T04:01:26;7.28;;;6.57;;
72261;SDS011;60173;52.112;8.648;2022-08-03T04:03:52;8.55;;;6.68;;
72261;SDS011;60173;52.112;8.648;2022-08-03T04:06:19;8.10;;;6.28;;
72261;SDS011;60173;52.112;8.648;2022-08-03T04:08:45;7.43;;;6.40;;
72261;SDS011;60173;52.112;8.648;2022-08-03T04:16:31;6.85;;;6.10;;
72261;SDS011;60173;52.112;8.648;2022-08-03T04:19:01;7.75;;;6.88;;
72261;SDS011;60173;52.112;8.648;2022-08-03T04:21:30;9.35;;;5.93;;
72261;SDS011;60173;52.112;8.648;2022-08-03T04:23:59;7.97;;;6.00;;
72261;SDS011;60173;52.112;8.648;2022-08-03T04:26:29;7.40;;;5.90;;
72261;SDS011;60173;52.112;8.648;2022-08-03T04:28:58;6.40;;;5.80;;
72261;SDS011;60173;52.112;8.648;2022-08-03T04:31:26;7.88;;;6.03;;
72261;SDS011;60173;52.112;8.648;2022-08-03T04:33:53;8.82;;;6.43;;
72261;SDS011;60173;52.112;8.648;2022-08-03T04:36:21;6.13;;;5.53;;
72261;SDS011;60173;52.112;8.648;2022-08-03T04:38:59;5.90;;;5.28;;
72261;SDS011;60173;52.112;8.648;2022-08-03T04:41:29;6.07;;;5.57;;
72261;SDS011;60173;52.112;8.648;2022-08-03T04:44:17;7.43;;;5.88;;
72261;SDS011;60173;52.112;8.648;2022-08-03T04:46:45;6.00;;;5.40;;
72261;SDS011;60173;52.112;8.648;2022-08-03T04:49:19;7.50;;;5.28;;
72261;SDS011;60173;52.112;8.648;2022-08-03T04:51:47;8.68;;;5.32;;
72261;SDS011;60173;52.112;8.648;2022-08-03T04:54:14;9.73;;;5.53;;
72261;SDS011;60173;52.112;8.648;2022-08-03T04:56:44;6.88;;;4.97;;
72261;SDS011;60173;52.112;8.648;2022-08-03T04:59:10;7.05;;;5.38;;
72261;SDS011;60173;52.112;8.648;2022-08-03T05:01:38;6.70;;;5.25;;
72261;SDS011;60173;52.112;8.648;2022-08-03T05:04:05;6.28;;;5.50;;
72261;SDS011;60173;52.112;8.648;2022-08-03T05:06:31;6.47;;;5.10;;
72261;SDS011;60173;52.112;8.648;2022-08-03T05:08:58;6.00;;;4.70;;
72261;SDS011;60173;52.112;8.648;2022-08-03T05:11:24;4.80;;;4.30;;
72261;SDS011;60173;52.112;8.648;2022-08-03T05:13:51;8.00;;;5.40;;
72261;SDS011;60173;52.112;8.648;2022-08-03T05:16:17;5.63;;;5.00;;
72261;SDS011;60173;52.112;8.648;2022-08-03T05:18:44;6.82;;;4.55;;
72261;SDS011;60173;52.112;8.648;2022-08-03T05:21:10;5.63;;;4.60;;
72261;SDS011;60173;52.112;8.648;2022-08-03T05:23:38;4.97;;;4.43;;
72261;SDS011;60173;52.112;8.648;2022-08-03T05:26:05;7.25;;;4.57;;
72261;SDS011;60173;52.112;8.648;2022-08-03T05:28:31;7.32;;;5.47;;
72261;SDS011;60173;52.112;8.648;2022-08-03T05:30:58;6.55;;;5.25;;
72261;SDS011;60173;52.112;8.648;2022-08-03T05:33:24;5.07;;;4.18;;
72261;SDS011;60173;52.112;8.648;2022-08-03T05:35:51;5.10;;;4.18;;
72261;SDS011;60173;52.112;8.648;2022-08-03T05:38:28;6.03;;;3.88;;
72261;SDS011;60173;52.112;8.648;2022-08-03T05:41:00;5.22;;;3.97;;
72261;SDS011;60173;52.112;8.648;2022-08-03T05:43:48;4.93;;;4.00;;
72261;SDS011;60173;52.112;8.648;2022-08-03T05:46:15;7.88;;;4.32;;
72261;SDS011;60173;52.112;8.648;2022-08-03T05:48:41;4.72;;;4.18;;
72261;SDS011;60173;52.112;8.648;2022-08-03T05:51:08;4.43;;;4.03;;
72261;SDS011;60173;52.112;8.648;2022-08-03T05:53:34;5.63;;;4.18;;
72261;SDS011;60173;52.112;8.648;2022-08-03T05:56:00;6.22;;;3.92;;
72261;SDS011;60173;52.112;8.648;2022-08-03T05:58:40;4.20;;;3.58;;
72261;SDS011;60173;52.112;8.648;2022-08-03T06:01:07;5.18;;;3.70;;
72261;SDS011;60173;52.112;8.648;2022-08-03T06:03:33;7.20;;;3.47;;
72261;SDS011;60173;52.112;8.648;2022-08-03T06:06:00;4.57;;;3.40;;
72261;SDS011;60173;52.112;8.648;2022-08-03T06:08:26;3.10;;;2.80;;
72261;SDS011;60173;52.112;8.648;2022-08-03T06:10:52;6.35;;;3.83;;
72261;SDS011;60173;52.112;8.648;2022-08-03T06:13:19;5.90;;;3.78;;
72261;SDS011;60173;52.112;8.648;2022-08-03T06:15:45;4.95;;;3.30;;
72261;SDS011;60173;52.112;8.648;2022-08-03T06:18:11;3.70;;;3.08;;
72261;SDS011;60173;52.112;8.648;2022-08-03T06:20:38;3.95;;;3.00;;
72261;SDS011;60173;52.112;8.648;2022-08-03T06:23:05;4.03;;;3.40;;
72261;SDS011;60173;52.112;8.648;2022-08-03T06:25:32;5.00;;;2.92;;
72261;SDS011;60173;52.112;8.648;2022-08-03T06:27:59;4.32;;;2.97;;
72261;SDS011;60173;52.112;8.648;2022-08-03T06:30:25;7.22;;;3.78;;
72261;SDS011;60173;52.112;8.648;2022-08-03T06:32:51;6.32;;;3.25;;
72261;SDS011;60173;52.112;8.648;2022-08-03T06:35:18;4.18;;;3.00;;
72261;SDS011;60173;52.112;8.648;2022-08-03T06:37:45;6.57;;;3.10;;
72261;SDS011;60173;52.112;8.648;2022-08-03T06:40:14;4.13;;;3.10;;
72261;SDS011;60173;52.112;8.648;2022-08-03T06:42:49;4.60;;;2.60;;
72261;SDS011;60173;52.112;8.648;2022-08-03T06:45:16;3.42;;;2.35;;
72261;SDS011;60173;52.112;8.648;2022-08-03T06:47:43;3.00;;;2.28;;
72261;SDS011;60173;52.112;8.648;2022-08-03T06:50:09;6.40;;;2.97;;
72261;SDS011;60173;52.112;8.648;2022-08-03T06:52:42;7.00;;;3.10;;
72261;SDS011;60173;52.112;8.648;2022-08-03T06:55:08;6.30;;;2.72;;
72261;SDS011;60173;52.112;8.648;2022-08-03T06:57:35;4.47;;;2.55;;
72261;SDS011;60173;52.112;8.648;2022-08-03T07:00:01;3.08;;;2.58;;
72261;SDS011;60173;52.112;8.648;2022-08-03T07:02:37;4.03;;;2.58;;
72261;SDS011;60173;52.112;8.648;2022-08-03T07:05:04;4.00;;;2.78;;
72261;SDS011;60173;52.112;8.648;2022-08-03T07:07:31;3.92;;;3.05;;
72261;SDS011;60173;52.112;8.648;2022-08-03T07:09:57;3.42;;;2.25;;
72261;SDS011;60173;52.112;8.648;2022-08-03T07:12:24;5.70;;;3.05;;
72261;SDS011;60173;52.112;8.648;2022-08-03T07:14:54;4.05;;;2.80;;
72261;SDS011;60173;52.112;8.648;2022-08-03T07:17:27;4.95;;;2.75;;
72261;SDS011;60173;52.112;8.648;2022-08-03T07:19:55;4.07;;;3.00;;
72261;SDS011;60173;52.112;8.648;2022-08-03T07:22:22;5.13;;;2.80;;
72261;SDS011;60173;52.112;8.648;2022-08-03T07:24:48;4.97;;;3.13;;
72261;SDS011;60173;52.112;8.648;2022-08-03T07:27:15;3.72;;;2.67;;
72261;SDS011;60173;52.112;8.648;2022-08-03T07:29:41;4.50;;;2.70;;
72261;SDS011;60173;52.112;8.648;2022-08-03T07:32:08;3.25;;;2.70;;
72261;SDS011;60173;52.112;8.648;2022-08-03T07:34:34;4.80;;;2.90;;
72261;SDS011;60173;52.112;8.648;2022-08-03T07:37:01;5.05;;;2.67;;
72261;SDS011;60173;52.112;8.648;2022-08-03T07:39:27;4.63;;;2.58;;
72261;SDS011;60173;52.112;8.648;2022-08-03T07:41:53;3.22;;;2.53;;
72261;SDS011;60173;52.112;8.648;2022-08-03T07:44:20;3.85;;;2.70;;
72261;SDS011;60173;52.112;8.648;2022-08-03T07:46:46;5.68;;;2.67;;
72261;SDS011;60173;52.112;8.648;2022-08-03T07:49:13;3.95;;;2.42;;
72261;SDS011;60173;52.112;8.648;2022-08-03T07:51:39;9.73;;;2.70;;
72261;SDS011;60173;52.112;8.648;2022-08-03T07:54:06;4.43;;;2.40;;
72261;SDS011;60173;52.112;8.648;2022-08-03T07:56:32;4.45;;;2.40;;
72261;SDS011;60173;52.112;8.648;2022-08-03T07:58:58;4.78;;;2.22;;
72261;SDS011;60173;52.112;8.648;2022-08-03T08:01:25;6.30;;;2.42;;
72261;SDS011;60173;52.112;8.648;2022-08-03T08:03:51;3.78;;;1.90;;
72261;SDS011;60173;52.112;8.648;2022-08-03T08:06:19;3.50;;;1.92;;
72261;SDS011;60173;52.112;8.648;2022-08-03T08:08:45;3.25;;;2.00;;
72261;SDS011;60173;52.112;8.648;2022-08-03T08:11:12;4.72;;;2.00;;
72261;SDS011;60173;52.112;8.648;2022-08-03T08:13:38;3.88;;;2.05;;
72261;SDS011;60173;52.112;8.648;2022-08-03T08:16:05;7.18;;;2.00;;
72261;SDS011;60173;52.112;8.648;2022-08-03T08:18:31;6.78;;;2.30;;
72261;SDS011;60173;52.112;8.648;2022-08-03T08:20:58;8.90;;;2.40;;
72261;SDS011;60173;52.112;8.648;2022-08-03T08:23:24;6.57;;;2.35;;
72261;SDS011;60173;52.112;8.648;2022-08-03T08:28:35;5.28;;;2.40;;
72261;SDS011;60173;52.112;8.648;2022-08-03T08:31:01;4.20;;;2.00;;
72261;SDS011;60173;52.112;8.648;2022-08-03T08:33:28;4.18;;;2.30;;
72261;SDS011;60173;52.112;8.648;2022-08-03T08:36:14;3.85;;;1.90;;
72261;SDS011;60173;52.112;8.648;2022-08-03T08:38:41;7.75;;;1.95;;
72261;SDS011;60173;52.112;8.648;2022-08-03T08:41:09;7.05;;;1.90;;
72261;SDS011;60173;52.112;8.648;2022-08-03T08:43:36;4.35;;;1.75;;
72261;SDS011;60173;52.112;8.648;2022-08-03T08:46:02;3.42;;;1.63;;
72261;SDS011;60173;52.112;8.648;2022-08-03T08:48:31;4.47;;;1.70;;
72261;SDS011;60173;52.112;8.648;2022-08-03T08:50:57;3.67;;;1.90;;
72261;SDS011;60173;52.112;8.648;2022-08-03T08:53:28;5.65;;;1.98;;
72261;SDS011;60173;52.112;8.648;2022-08-03T08:55:58;4.03;;;2.00;;
72261;SDS011;60173;52.112;8.648;2022-08-03T08:58:30;3.28;;;1.92;;
72261;SDS011;60173;52.112;8.648;2022-08-03T09:01:03;3.15;;;1.88;;
72261;SDS011;60173;52.112;8.648;2022-08-03T09:03:31;4.40;;;1.90;;
72261;SDS011;60173;52.112;8.648;2022-08-03T09:05:59;3.75;;;1.80;;
72261;SDS011;60173;52.112;8.648;2022-08-03T09:08:30;6.35;;;2.58;;
72261;SDS011;60173;52.112;8.648;2022-08-03T09:10:58;3.20;;;1.58;;
72261;SDS011;60173;52.112;8.648;2022-08-03T09:13:24;5.05;;;2.22;;
72261;SDS011;60173;52.112;8.648;2022-08-03T09:18:36;3.90;;;2.00;;
72261;SDS011;60173;52.112;8.648;2022-08-03T09:23:59;7.72;;;2.42;;
72261;SDS011;60173;52.112;8.648;2022-08-03T09:26:30;5.60;;;2.30;;
72261;SDS011;60173;52.112;8.648;2022-08-03T09:28:58;6.53;;;2.33;;
72261;SDS011;60173;52.112;8.648;2022-08-03T09:31:35;4.35;;;2.53;;
72261;SDS011;60173;52.112;8.648;2022-08-03T09:34:13;3.97;;;2.30;;
72261;SDS011;60173;52.112;8.648;2022-08-03T09:36:43;4.18;;;2.47;;
72261;SDS011;60173;52.112;8.648;2022-08-03T09:39:10;4.13;;;2.25;;
72261;SDS011;60173;52.112;8.648;2022-08-03T09:41:38;5.75;;;2.80;;
72261;SDS011;60173;52.112;8.648;2022-08-03T09:44:06;3.75;;;2.22;;
72261;SDS011;60173;52.112;8.648;2022-08-03T09:46:49;6.15;;;2.53;;
72261;SDS011;60173;52.112;8.648;2022-08-03T09:49:17;7.03;;;2.58;;
72261;SDS011;60173;52.112;8.648;2022-08-03T09:51:44;6.75;;;2.65;;
72261;SDS011;60173;52.112;8.648;2022-08-03T09:54:31;3.38;;;2.45;;
72261;SDS011;60173;52.112;8.648;2022-08-03T09:56:57;5.20;;;2.33;;
72261;SDS011;60173;52.112;8.648;2022-08-03T09:59:25;4.45;;;2.75;;
72261;SDS011;60173;52.112;8.648;2022-08-03T10:01:53;5.22;;;2.25;;
72261;SDS011;60173;52.112;8.648;2022-08-03T10:04:21;4.70;;;2.00;;
72261;SDS011;60173;52.112;8.648;2022-08-03T10:07:04;4.70;;;2.30;;
72261;SDS011;60173;52.112;8.648;2022-08-03T10:09:35;6.95;;;2.63;;
72261;SDS011;60173;52.112;8.648;2022-08-03T10:12:11;5.30;;;2.63;;
72261;SDS011;60173;52.112;8.648;2022-08-03T10:14:39;5.93;;;2.75;;
72261;SDS011;60173;52.112;8.648;2022-08-03T10:17:08;6.00;;;2.72;;
72261;SDS011;60173;52.112;8.648;2022-08-03T10:19:34;3.47;;;2.20;;
72261;SDS011;60173;52.112;8.648;2022-08-03T10:22:09;3.00;;;2.05;;
72261;SDS011;60173;52.112;8.648;2022-08-03T10:24:39;4.65;;;2.22;;
72261;SDS011;60173;52.112;8.648;2022-08-03T10:27:12;7.38;;;2.45;;
72261;SDS011;60173;52.112;8.648;2022-08-03T10:29:42;7.32;;;2.30;;
72261;SDS011;60173;52.112;8.648;2022-08-03T10:35:06;4.18;;;1.83;;
72261;SDS011;60173;52.112;8.648;2022-08-03T10:37:59;3.90;;;2.20;;
72261;SDS011;60173;52.112;8.648;2022-08-03T10:40:29;6.25;;;2.00;;
72261;SDS011;60173;52.112;8.648;2022-08-03T10:43:20;5.78;;;2.53;;
72261;SDS011;60173;52.112;8.648;2022-08-03T10:45:51;5.25;;;2.30;;
72261;SDS011;60173;52.112;8.648;2022-08-03T10:48:17;6.93;;;2.33;;
72261;SDS011;60173;52.112;8.648;2022-08-03T10:50:45;4.20;;;2.10;;
72261;SDS011;60173;52.112;8.648;2022-08-03T10:53:13;3.58;;;1.90;;
72261;SDS011;60173;52.112;8.648;2022-08-03T10:55:44;3.85;;;2.00;;
72261;SDS011;60173;52.112;8.648;2022-08-03T10:58:11;9.60;;;1.98;;
72261;SDS011;60173;52.112;8.648;2022-08-03T11:00:55;5.35;;;2.30;;
72261;SDS011;60173;52.112;8.648;2022-08-03T11:03:21;4.93;;;2.40;;
72261;SDS011;60173;52.112;8.648;2022-08-03T11:05:48;3.13;;;1.73;;
72261;SDS011;60173;52.112;8.648;2022-08-03T11:08:18;3.10;;;1.88;;
72261;SDS011;60173;52.112;8.648;2022-08-03T11:10:47;2.33;;;1.50;;
72261;SDS011;60173;52.112;8.648;2022-08-03T11:13:16;2.97;;;1.60;;
72261;SDS011;60173;52.112;8.648;2022-08-03T11:15:46;2.92;;;1.60;;
72261;SDS011;60173;52.112;8.648;2022-08-03T11:18:14;3.50;;;1.50;;
72261;SDS011;60173;52.112;8.648;2022-08-03T11:20:48;3.55;;;1.70;;
72261;SDS011;60173;52.112;8.648;2022-08-03T11:23:15;4.50;;;1.70;;
72261;SDS011;60173;52.112;8.648;2022-08-03T11:28:35;4.30;;;1.55;;
72261;SDS011;60173;52.112;8.648;2022-08-03T11:31:42;4.07;;;1.60;;
72261;SDS011;60173;52.112;8.648;2022-08-03T11:34:14;2.67;;;1.50;;
72261;SDS011;60173;52.112;8.648;2022-08-03T11:39:48;5.13;;;2.00;;
72261;SDS011;60173;52.112;8.648;2022-08-03T11:44:48;5.40;;;2.03;;
72261;SDS011;60173;52.112;8.648;2022-08-03T11:47:24;2.70;;;1.90;;
72261;SDS011;60173;52.112;8.648;2022-08-03T11:49:54;5.07;;;1.73;;
72261;SDS011;60173;52.112;8.648;2022-08-03T11:52:22;4.97;;;2.17;;
72261;SDS011;60173;52.112;8.648;2022-08-03T11:54:53;5.25;;;2.00;;
72261;SDS011;60173;52.112;8.648;2022-08-03T11:57:29;3.20;;;1.90;;
72261;SDS011;60173;52.112;8.648;2022-08-03T12:00:20;4.28;;;2.30;;
72261;SDS011;60173;52.112;8.648;2022-08-03T12:03:01;5.75;;;1.90;;
72261;SDS011;60173;52.112;8.648;2022-08-03T12:10:53;4.38;;;1.95;;
72261;SDS011;60173;52.112;8.648;2022-08-03T12:13:21;8.13;;;2.35;;
72261;SDS011;60173;52.112;8.648;2022-08-03T12:16:08;3.00;;;2.15;;
72261;SDS011;60173;52.112;8.648;2022-08-03T12:18:34;8.73;;;2.30;;
72261;SDS011;60173;52.112;8.648;2022-08-03T12:21:05;4.68;;;2.30;;
72261;SDS011;60173;52.112;8.648;2022-08-03T12:23:33;3.47;;;2.20;;
72261;SDS011;60173;52.112;8.648;2022-08-03T12:26:08;8.77;;;1.95;;
72261;SDS011;60173;52.112;8.648;2022-08-03T12:28:35;12.13;;;2.40;;
72261;SDS011;60173;52.112;8.648;2022-08-03T12:31:05;4.28;;;1.95;;
72261;SDS011;60173;52.112;8.648;2022-08-03T12:33:53;4.72;;;2.13;;
72261;SDS011;60173;52.112;8.648;2022-08-03T12:36:26;5.30;;;2.45;;
72261;SDS011;60173;52.112;8.648;2022-08-03T12:39:02;3.67;;;1.95;;
72261;SDS011;60173;52.112;8.648;2022-08-03T12:41:35;6.32;;;2.30;;
72261;SDS011;60173;52.112;8.648;2022-08-03T12:44:04;5.40;;;2.08;;
72261;SDS011;60173;52.112;8.648;2022-08-03T12:49:05;3.17;;;1.98;;
72261;SDS011;60173;52.112;8.648;2022-08-03T12:51:37;11.38;;;2.92;;
72261;SDS011;60173;52.112;8.648;2022-08-03T12:54:21;6.28;;;2.13;;
72261;SDS011;60173;52.112;8.648;2022-08-03T12:57:03;6.90;;;2.60;;
72261;SDS011;60173;52.112;8.648;2022-08-03T12:59:34;5.78;;;2.60;;
72261;SDS011;60173;52.112;8.648;2022-08-03T13:02:12;5.35;;;2.30;;
72261;SDS011;60173;52.112;8.648;2022-08-03T13:07:07;5.60;;;2.90;;
72261;SDS011;60173;52.112;8.648;2022-08-03T13:09:43;5.22;;;2.60;;
72261;SDS011;60173;52.112;8.648;2022-08-03T13:12:13;4.40;;;2.33;;
72261;SDS011;60173;52.112;8.648;2022-08-03T13:14:42;5.05;;;2.20;;
72261;SDS011;60173;52.112;8.648;2022-08-03T13:17:09;3.13;;;1.80;;
72261;SDS011;60173;52.112;8.648;2022-08-03T13:19:37;6.22;;;2.13;;
72261;SDS011;60173;52.112;8.648;2022-08-03T13:22:11;4.68;;;2.20;;
72261;SDS011;60173;52.112;8.648;2022-08-03T13:27:05;6.65;;;2.13;;
72261;SDS011;60173;52.112;8.648;2022-08-03T13:29:52;4.55;;;2.00;;
72261;SDS011;60173;52.112;8.648;2022-08-03T13:32:19;8.63;;;2.25;;
72261;SDS011;60173;52.112;8.648;2022-08-03T13:34:46;4.18;;;2.28;;
72261;SDS011;60173;52.112;8.648;2022-08-03T13:37:13;3.88;;;2.30;;
72261;SDS011;60173;52.112;8.648;2022-08-03T13:39:40;5.30;;;2.42;;
72261;SDS011;60173;52.112;8.648;2022-08-03T13:42:25;3.30;;;2.20;;
72261;SDS011;60173;52.112;8.648;2022-08-03T13:44:51;5.32;;;2.20;;
72261;SDS011;60173;52.112;8.648;2022-08-03T13:47:18;2.85;;;1.67;;
72261;SDS011;60173;52.112;8.648;2022-08-03T13:49:45;3.97;;;1.85;;
72261;SDS011;60173;52.112;8.648;2022-08-03T13:52:27;4.53;;;1.90;;
72261;SDS011;60173;52.112;8.648;2022-08-03T13:54:57;3.75;;;2.17;;
72261;SDS011;60173;52.112;8.648;2022-08-03T13:57:23;4.85;;;2.38;;
72261;SDS011;60173;52.112;8.648;2022-08-03T14:00:10;3.42;;;2.17;;
72261;SDS011;60173;52.112;8.648;2022-08-03T14:02:36;6.15;;;1.83;;
72261;SDS011;60173;52.112;8.648;2022-08-03T14:05:03;3.15;;;1.95;;
72261;SDS011;60173;52.112;8.648;2022-08-03T14:07:30;3.70;;;2.30;;
72261;SDS011;60173;52.112;8.648;2022-08-03T14:09:56;4.18;;;2.03;;
72261;SDS011;60173;52.112;8.648;2022-08-03T14:12:23;4.28;;;2.03;;
72261;SDS011;60173;52.112;8.648;2022-08-03T14:14:49;3.83;;;2.22;;
72261;SDS011;60173;52.112;8.648;2022-08-03T14:17:15;4.57;;;2.15;;
72261;SDS011;60173;52.112;8.648;2022-08-03T14:19:42;3.78;;;2.25;;
72261;SDS011;60173;52.112;8.648;2022-08-03T14:22:19;4.95;;;2.10;;
72261;SDS011;60173;52.112;8.648;2022-08-03T14:24:45;4.22;;;2.20;;
72261;SDS011;60173;52.112;8.648;2022-08-03T14:27:12;3.05;;;2.15;;
72261;SDS011;60173;52.112;8.648;2022-08-03T14:29:38;3.20;;;2.33;;
72261;SDS011;60173;52.112;8.648;2022-08-03T14:32:04;5.70;;;2.40;;
72261;SDS011;60173;52.112;8.648;2022-08-03T14:34:37;3.20;;;2.30;;
72261;SDS011;60173;52.112;8.648;2022-08-03T14:37:04;6.25;;;2.47;;
72261;SDS011;60173;52.112;8.648;2022-08-03T14:39:30;3.25;;;1.80;;
72261;SDS011;60173;52.112;8.648;2022-08-03T14:42:17;5.60;;;2.00;;
72261;SDS011;60173;52.112;8.648;2022-08-03T14:44:43;6.45;;;2.17;;
72261;SDS011;60173;52.112;8.648;2022-08-03T14:47:09;4.55;;;2.30;;
72261;SDS011;60173;52.112;8.648;2022-08-03T14:49:36;2.90;;;1.85;;
72261;SDS011;60173;52.112;8.648;2022-08-03T14:52:22;4.90;;;1.90;;
72261;SDS011;60173;52.112;8.648;2022-08-03T14:54:49;7.68;;;2.40;;
72261;SDS011;60173;52.112;8.648;2022-08-03T14:57:15;4.28;;;2.30;;
72261;SDS011;60173;52.112;8.648;2022-08-03T14:59:41;2.63;;;1.80;;
72261;SDS011;60173;52.112;8.648;2022-08-03T15:02:22;5.53;;;2.45;;
72261;SDS011;60173;52.112;8.648;2022-08-03T15:04:50;5.72;;;2.58;;
72261;SDS011;60173;52.112;8.648;2022-08-03T15:07:16;4.47;;;1.85;;
72261;SDS011;60173;52.112;8.648;2022-08-03T15:09:43;4.75;;;2.05;;
72261;SDS011;60173;52.112;8.648;2022-08-03T15:12:09;5.57;;;2.20;;
72261;SDS011;60173;52.112;8.648;2022-08-03T15:14:36;4.85;;;2.10;;
72261;SDS011;60173;52.112;8.648;2022-08-03T15:17:03;3.28;;;2.05;;
72261;SDS011;60173;52.112;8.648;2022-08-03T15:19:30;2.90;;;1.70;;
72261;SDS011;60173;52.112;8.648;2022-08-03T15:22:16;4.15;;;2.10;;
72261;SDS011;60173;52.112;8.648;2022-08-03T15:24:45;3.47;;;1.63;;
72261;SDS011;60173;52.112;8.648;2022-08-03T15:27:12;4.00;;;2.00;;
72261;SDS011;60173;52.112;8.648;2022-08-03T15:29:38;4.30;;;2.15;;
72261;SDS011;60173;52.112;8.648;2022-08-03T15:32:24;4.72;;;2.10;;
72261;SDS011;60173;52.112;8.648;2022-08-03T15:34:51;4.10;;;2.17;;
72261;SDS011;60173;52.112;8.648;2022-08-03T15:37:18;4.05;;;2.30;;
72261;SDS011;60173;52.112;8.648;2022-08-03T15:39:45;5.03;;;2.40;;
72261;SDS011;60173;52.112;8.648;2022-08-03T15:42:26;4.60;;;2.30;;
72261;SDS011;60173;52.112;8.648;2022-08-03T15:44:53;4.53;;;1.90;;
72261;SDS011;60173;52.112;8.648;2022-08-03T15:47:20;4.00;;;1.95;;
72261;SDS011;60173;52.112;8.648;2022-08-03T15:49:46;4.68;;;2.20;;
72261;SDS011;60173;52.112;8.648;2022-08-03T15:52:13;10.05;;;2.05;;
72261;SDS011;60173;52.112;8.648;2022-08-03T15:54:39;4.53;;;2.05;;
72261;SDS011;60173;52.112;8.648;2022-08-03T15:57:06;3.80;;;2.00;;